createdAt,value
2022-10-30T00:00:40.135Z,14.56
2022-10-30T00:01:40.317Z,14.56
2022-10-30T00:02:40.212Z,14.56
2022-10-30T00:03:40.129Z,14.56
2022-10-30T00:04:40.129Z,14.47
2022-10-30T00:05:40.134Z,14.47
2022-10-30T00:06:40.169Z,14.56
2022-10-30T00:07:40.345Z,14.56
2022-10-30T00:08:40.138Z,14.47
2022-10-30T00:09:40.151Z,14.47
2022-10-30T00:10:40.154Z,14.47
2022-10-30T00:11:40.177Z,14.47
2022-10-30T00:12:40.289Z,14.47
2022-10-30T00:13:40.119Z,14.47
2022-10-30T00:14:40.170Z,14.47
2022-10-30T00:15:40.126Z,14.38
2022-10-30T00:16:40.122Z,14.47
2022-10-30T00:17:40.142Z,14.47
2022-10-30T00:18:40.125Z,14.38
2022-10-30T00:19:40.165Z,14.38
2022-10-30T00:20:40.181Z,14.38
2022-10-30T00:21:40.198Z,14.47
2022-10-30T00:22:40.278Z,14.47
2022-10-30T00:23:40.161Z,14.47
2022-10-30T00:24:40.270Z,14.47
2022-10-30T00:25:40.353Z,14.56
2022-10-30T00:26:40.452Z,14.56
2022-10-30T00:27:40.136Z,14.56
2022-10-30T00:28:40.158Z,14.65
2022-10-30T00:29:40.176Z,14.56
2022-10-30T00:30:40.155Z,14.56
2022-10-30T00:31:40.134Z,14.56
2022-10-30T00:32:40.106Z,14.47
2022-10-30T00:33:40.150Z,14.47
2022-10-30T00:34:40.130Z,14.47
2022-10-30T00:35:40.248Z,14.47
2022-10-30T00:36:40.138Z,14.47
2022-10-30T00:37:40.170Z,14.56
2022-10-30T00:38:40.168Z,14.56
2022-10-30T00:39:40.124Z,14.56
2022-10-30T00:40:40.139Z,14.65
2022-10-30T00:41:40.131Z,14.56
2022-10-30T00:42:40.133Z,14.56
2022-10-30T00:43:40.142Z,14.56
2022-10-30T00:44:40.140Z,14.56
2022-10-30T00:45:40.158Z,14.56
2022-10-30T00:46:40.128Z,14.56
2022-10-30T00:47:40.133Z,14.56
2022-10-30T00:48:40.126Z,14.56
2022-10-30T00:49:40.188Z,14.47
2022-10-30T00:50:40.132Z,14.38
2022-10-30T00:51:40.151Z,14.47
2022-10-30T00:52:40.181Z,14.47
2022-10-30T00:53:40.178Z,14.38
2022-10-30T00:54:40.169Z,14.38
2022-10-30T00:55:40.133Z,14.38
2022-10-30T00:56:40.142Z,14.38
2022-10-30T00:57:40.146Z,14.3
2022-10-30T00:58:40.144Z,14.3
2022-10-30T00:59:40.161Z,14.3
2022-10-30T01:00:40.178Z,14.3
2022-10-30T01:01:40.391Z,14.38
2022-10-30T01:02:40.220Z,14.38
2022-10-30T01:03:40.128Z,14.3
2022-10-30T01:04:40.161Z,14.3
2022-10-30T01:05:40.156Z,14.3
2022-10-30T01:06:40.196Z,14.3
2022-10-30T01:07:40.145Z,14.3
2022-10-30T01:08:40.272Z,14.21
2022-10-30T01:09:40.169Z,14.21
2022-10-30T01:10:40.131Z,14.21
2022-10-30T01:11:40.147Z,14.21
2022-10-30T01:12:40.127Z,14.13
2022-10-30T01:13:40.141Z,14.13
2022-10-30T01:14:40.179Z,14.13
2022-10-30T01:15:40.144Z,14.21
2022-10-30T01:16:40.176Z,14.13
2022-10-30T01:17:40.166Z,14.13
2022-10-30T01:18:40.145Z,14.04
2022-10-30T01:19:40.131Z,14.04
2022-10-30T01:20:40.140Z,13.96
2022-10-30T01:21:40.178Z,14.04
2022-10-30T01:22:40.141Z,14.04
2022-10-30T01:23:40.128Z,14.04
2022-10-30T01:24:40.157Z,13.96
2022-10-30T01:25:40.143Z,13.96
2022-10-30T01:26:40.134Z,13.96
2022-10-30T01:27:40.129Z,13.87
2022-10-30T01:28:40.130Z,13.87
2022-10-30T01:29:40.129Z,13.79
2022-10-30T01:30:40.131Z,13.71
2022-10-30T01:31:40.170Z,13.71
2022-10-30T01:32:40.193Z,13.71
2022-10-30T01:33:40.129Z,13.71
2022-10-30T01:34:40.131Z,13.71
2022-10-30T01:35:40.171Z,13.71
2022-10-30T01:36:40.126Z,13.79
2022-10-30T01:37:40.141Z,13.79
2022-10-30T01:38:40.135Z,13.71
2022-10-30T01:39:40.165Z,13.71
2022-10-30T01:40:40.168Z,13.71
2022-10-30T01:41:40.150Z,13.71
2022-10-30T01:42:40.275Z,13.79
2022-10-30T01:43:40.137Z,13.71
2022-10-30T01:44:40.139Z,13.71
2022-10-30T01:45:40.181Z,13.71
2022-10-30T01:46:40.137Z,13.71
2022-10-30T01:47:40.192Z,13.63
2022-10-30T01:48:40.198Z,13.63
2022-10-30T01:49:40.130Z,13.63
2022-10-30T01:50:40.144Z,13.71
2022-10-30T01:51:40.136Z,13.63
2022-10-30T01:52:40.130Z,13.71
2022-10-30T01:53:40.152Z,13.71
2022-10-30T01:54:40.164Z,13.79
2022-10-30T01:55:40.182Z,13.79
2022-10-30T01:56:40.161Z,13.71
2022-10-30T01:57:40.146Z,13.71
2022-10-30T01:58:40.161Z,13.71
2022-10-30T01:59:40.493Z,13.71
2022-10-30T02:00:40.162Z,13.71
2022-10-30T02:01:40.341Z,13.71
2022-10-30T02:02:40.285Z,13.71
2022-10-30T02:03:40.223Z,13.71
2022-10-30T02:04:40.147Z,13.79
2022-10-30T02:05:40.144Z,13.79
2022-10-30T02:06:40.176Z,13.71
2022-10-30T02:07:40.160Z,13.71
2022-10-30T02:08:40.141Z,13.71
2022-10-30T02:09:40.150Z,13.79
2022-10-30T02:10:40.176Z,13.79
2022-10-30T02:11:40.184Z,13.71
2022-10-30T02:12:40.131Z,13.71
2022-10-30T02:13:40.159Z,13.63
2022-10-30T02:14:40.151Z,13.71
2022-10-30T02:15:40.172Z,13.79
2022-10-30T02:16:40.143Z,13.71
2022-10-30T02:17:40.144Z,13.71
2022-10-30T02:18:40.248Z,13.63
2022-10-30T02:19:40.205Z,13.71
2022-10-30T02:20:40.133Z,13.63
2022-10-30T02:21:40.141Z,13.63
2022-10-30T02:22:40.209Z,13.54
2022-10-30T02:23:40.140Z,13.54
2022-10-30T02:24:40.153Z,13.54
2022-10-30T02:25:40.160Z,13.54
2022-10-30T02:26:40.180Z,13.54
2022-10-30T02:27:40.168Z,13.46
2022-10-30T02:28:40.143Z,13.46
2022-10-30T02:29:40.148Z,13.46
2022-10-30T02:30:40.134Z,13.46
2022-10-30T02:31:40.128Z,13.38
2022-10-30T02:32:40.166Z,13.38
2022-10-30T02:33:40.143Z,13.3
2022-10-30T02:34:40.205Z,13.3
2022-10-30T02:35:40.146Z,13.3
2022-10-30T02:36:40.154Z,13.3
2022-10-30T02:37:40.175Z,13.3
2022-10-30T02:38:40.184Z,13.3
2022-10-30T02:39:40.323Z,13.3
2022-10-30T02:40:40.348Z,13.3
2022-10-30T02:41:40.238Z,13.22
2022-10-30T02:42:40.532Z,13.22
2022-10-30T02:43:40.331Z,13.22
2022-10-30T02:44:40.209Z,13.22
2022-10-30T02:45:40.204Z,13.22
2022-10-30T02:46:40.144Z,13.22
2022-10-30T02:47:40.158Z,13.3
2022-10-30T02:48:40.167Z,13.38
2022-10-30T02:49:40.180Z,13.38
2022-10-30T02:50:40.180Z,13.38
2022-10-30T02:51:40.161Z,13.38
2022-10-30T02:52:40.148Z,13.38
2022-10-30T02:53:40.133Z,13.46
2022-10-30T02:54:40.162Z,13.46
2022-10-30T02:55:40.201Z,13.46
2022-10-30T02:56:40.155Z,13.38
2022-10-30T02:57:40.227Z,13.46
2022-10-30T02:58:40.184Z,13.38
2022-10-30T02:59:40.154Z,13.38
2022-10-30T03:00:40.150Z,13.38
2022-10-30T03:01:40.356Z,13.46
2022-10-30T03:02:40.225Z,13.38
2022-10-30T03:03:40.171Z,13.38
2022-10-30T03:04:40.155Z,13.38
2022-10-30T03:05:40.188Z,13.38
2022-10-30T03:06:40.148Z,13.38
2022-10-30T03:07:40.140Z,13.38
2022-10-30T03:08:40.165Z,13.38
2022-10-30T03:09:40.212Z,13.3
2022-10-30T03:10:40.144Z,13.38
2022-10-30T03:11:40.157Z,13.38
2022-10-30T03:12:40.200Z,13.3
2022-10-30T03:13:40.182Z,13.22
2022-10-30T03:14:40.141Z,13.22
2022-10-30T03:15:40.188Z,13.14
2022-10-30T03:16:40.146Z,13.14
2022-10-30T03:18:40.164Z,13.14
2022-10-30T03:19:40.135Z,13.14
2022-10-30T03:20:40.204Z,13.14
2022-10-30T03:21:40.182Z,13.14
2022-10-30T03:22:40.160Z,13.14
2022-10-30T03:23:40.215Z,13.06
2022-10-30T03:24:40.160Z,13.06
2022-10-30T03:25:40.148Z,13.06
2022-10-30T03:26:40.178Z,13.06
2022-10-30T03:27:40.137Z,13.06
2022-10-30T03:28:40.190Z,13.06
2022-10-30T03:29:40.192Z,13.06
2022-10-30T03:30:40.147Z,12.98
2022-10-30T03:31:40.169Z,12.98
2022-10-30T03:32:40.155Z,12.98
2022-10-30T03:33:40.151Z,12.98
2022-10-30T03:34:40.173Z,12.98
2022-10-30T03:35:40.161Z,12.9
2022-10-30T03:36:40.186Z,12.9
2022-10-30T03:37:40.221Z,12.9
2022-10-30T03:38:40.149Z,12.9
2022-10-30T03:39:40.230Z,12.9
2022-10-30T03:40:40.227Z,12.9
2022-10-30T03:41:40.162Z,12.9
2022-10-30T03:42:40.164Z,12.82
2022-10-30T03:43:40.204Z,12.82
2022-10-30T03:44:40.203Z,12.82
2022-10-30T03:45:40.147Z,12.82
2022-10-30T03:46:40.147Z,12.82
2022-10-30T03:47:40.155Z,12.82
2022-10-30T03:48:40.167Z,12.82
2022-10-30T03:49:40.154Z,12.82
2022-10-30T03:50:40.166Z,12.82
2022-10-30T03:51:40.172Z,12.82
2022-10-30T03:52:40.189Z,12.9
2022-10-30T03:53:40.152Z,12.9
2022-10-30T03:54:40.152Z,12.9
2022-10-30T03:55:40.163Z,12.9
2022-10-30T03:56:40.144Z,12.82
2022-10-30T03:57:40.158Z,12.9
2022-10-30T03:58:40.157Z,12.9
2022-10-30T03:59:40.210Z,12.9
2022-10-30T04:00:40.197Z,12.9
2022-10-30T04:01:40.351Z,12.82
2022-10-30T04:02:40.168Z,12.82
2022-10-30T04:03:40.162Z,12.74
2022-10-30T04:04:40.171Z,12.74
2022-10-30T04:05:40.578Z,12.74
2022-10-30T04:06:40.158Z,12.74
2022-10-30T04:07:40.208Z,12.67
2022-10-30T04:08:40.194Z,12.74
2022-10-30T04:09:40.158Z,12.74
2022-10-30T04:10:40.289Z,12.74
2022-10-30T04:11:40.160Z,12.67
2022-10-30T04:12:40.178Z,12.67
2022-10-30T04:13:40.155Z,12.59
2022-10-30T04:14:40.179Z,12.67
2022-10-30T04:15:40.198Z,12.67
2022-10-30T04:16:40.249Z,12.67
2022-10-30T04:17:40.167Z,12.67
2022-10-30T04:18:40.176Z,12.67
2022-10-30T04:19:40.219Z,12.59
2022-10-30T04:20:40.159Z,12.59
2022-10-30T04:21:40.162Z,12.59
2022-10-30T04:22:40.171Z,12.59
2022-10-30T04:23:40.251Z,12.51
2022-10-30T04:24:40.157Z,12.51
2022-10-30T04:25:40.181Z,12.59
2022-10-30T04:26:40.153Z,12.67
2022-10-30T04:27:40.164Z,12.59
2022-10-30T04:28:40.158Z,12.59
2022-10-30T04:29:40.196Z,12.59
2022-10-30T04:30:40.154Z,12.59
2022-10-30T04:31:40.203Z,12.59
2022-10-30T04:32:40.198Z,12.59
2022-10-30T04:33:40.174Z,12.59
2022-10-30T04:34:40.165Z,12.59
2022-10-30T04:35:40.230Z,12.59
2022-10-30T04:36:40.273Z,12.67
2022-10-30T04:37:40.341Z,12.67
2022-10-30T04:38:40.381Z,12.67
2022-10-30T04:39:43.789Z,12.67
2022-10-30T04:40:40.187Z,12.67
2022-10-30T04:41:40.354Z,12.59
2022-10-30T04:42:40.168Z,12.67
2022-10-30T04:43:40.487Z,12.59
2022-10-30T04:44:40.176Z,12.59
2022-10-30T04:45:40.159Z,12.59
2022-10-30T04:46:40.200Z,12.51
2022-10-30T04:47:40.196Z,12.51
2022-10-30T04:48:40.145Z,12.51
2022-10-30T04:49:40.157Z,12.51
2022-10-30T04:50:40.153Z,12.59
2022-10-30T04:51:40.152Z,12.59
2022-10-30T04:52:40.145Z,12.67
2022-10-30T04:53:40.148Z,12.59
2022-10-30T04:54:40.219Z,12.59
2022-10-30T04:55:40.190Z,12.59
2022-10-30T04:56:40.190Z,12.51
2022-10-30T04:57:40.160Z,12.59
2022-10-30T04:58:40.159Z,12.51
2022-10-30T04:59:40.185Z,12.59
2022-10-30T05:00:40.166Z,12.59
2022-10-30T05:01:40.282Z,12.59
2022-10-30T05:02:40.491Z,12.51
2022-10-30T05:03:40.173Z,12.51
2022-10-30T05:04:40.149Z,12.51
2022-10-30T05:05:40.162Z,12.51
2022-10-30T05:06:40.160Z,12.51
2022-10-30T05:07:40.177Z,12.51
2022-10-30T05:08:40.175Z,12.59
2022-10-30T05:09:40.189Z,12.51
2022-10-30T05:10:40.196Z,12.51
2022-10-30T05:11:40.156Z,12.51
2022-10-30T05:12:40.239Z,12.51
2022-10-30T05:13:40.179Z,12.44
2022-10-30T05:14:40.179Z,12.44
2022-10-30T05:15:40.168Z,12.44
2022-10-30T05:16:40.172Z,12.51
2022-10-30T05:17:40.216Z,12.51
2022-10-30T05:18:40.189Z,12.44
2022-10-30T05:19:40.177Z,12.44
2022-10-30T05:20:40.279Z,12.44
2022-10-30T05:21:40.163Z,12.36
2022-10-30T05:22:40.176Z,12.36
2022-10-30T05:23:40.220Z,12.36
2022-10-30T05:24:40.166Z,12.36
2022-10-30T05:25:40.207Z,12.36
2022-10-30T05:26:40.204Z,12.36
2022-10-30T05:27:40.186Z,12.36
2022-10-30T05:28:40.187Z,12.36
2022-10-30T05:29:40.170Z,12.36
2022-10-30T05:30:40.174Z,12.36
2022-10-30T05:31:40.179Z,12.28
2022-10-30T05:32:40.165Z,12.28
2022-10-30T05:33:40.199Z,12.36
2022-10-30T05:34:40.173Z,12.28
2022-10-30T05:35:40.164Z,12.28
2022-10-30T05:36:40.212Z,12.36
2022-10-30T05:37:40.157Z,12.28
2022-10-30T05:38:40.217Z,12.28
2022-10-30T05:39:40.158Z,12.28
2022-10-30T05:40:40.177Z,12.28
2022-10-30T05:41:40.203Z,12.28
2022-10-30T05:42:40.166Z,12.21
2022-10-30T05:43:40.203Z,12.21
2022-10-30T05:44:59.787Z,12.21
2022-10-30T05:45:40.246Z,12.21
2022-10-30T05:46:40.235Z,12.21
2022-10-30T05:47:40.192Z,12.13
2022-10-30T05:48:40.224Z,12.13
2022-10-30T05:49:40.214Z,12.21
2022-10-30T05:50:40.175Z,12.13
2022-10-30T05:51:40.761Z,12.13
2022-10-30T05:52:40.197Z,12.13
2022-10-30T05:53:40.157Z,12.13
2022-10-30T05:54:40.199Z,12.21
2022-10-30T05:55:40.162Z,12.13
2022-10-30T05:56:40.206Z,12.13
2022-10-30T05:57:40.202Z,12.13
2022-10-30T05:58:40.295Z,12.13
2022-10-30T05:59:40.193Z,12.13
2022-10-30T06:00:40.165Z,12.21
2022-10-30T06:01:40.297Z,12.21
2022-10-30T06:02:40.291Z,12.21
2022-10-30T06:03:40.180Z,12.21
2022-10-30T06:04:40.231Z,12.21
2022-10-30T06:05:40.200Z,12.28
2022-10-30T06:06:40.207Z,12.28
2022-10-30T06:07:40.175Z,12.28
2022-10-30T06:08:40.172Z,12.28
2022-10-30T06:09:40.180Z,12.28
2022-10-30T06:10:40.182Z,12.21
2022-10-30T06:11:40.171Z,12.21
2022-10-30T06:12:40.206Z,12.21
2022-10-30T06:13:40.160Z,12.21
2022-10-30T06:14:40.200Z,12.21
2022-10-30T06:15:40.181Z,12.21
2022-10-30T06:16:40.239Z,12.21
2022-10-30T06:17:40.163Z,12.21
2022-10-30T06:18:40.178Z,12.21
2022-10-30T06:19:40.232Z,12.28
2022-10-30T06:20:40.210Z,12.21
2022-10-30T06:21:40.204Z,12.28
2022-10-30T06:22:40.184Z,12.21
2022-10-30T06:23:40.191Z,12.21
2022-10-30T06:24:40.164Z,12.21
2022-10-30T06:25:41.509Z,12.21
2022-10-30T06:26:40.161Z,12.21
2022-10-30T06:27:40.210Z,12.21
2022-10-30T06:28:40.198Z,12.28
2022-10-30T06:29:40.337Z,12.21
2022-10-30T06:30:40.166Z,12.21
2022-10-30T06:31:40.171Z,12.21
2022-10-30T06:32:40.167Z,12.28
2022-10-30T06:33:40.236Z,12.28
2022-10-30T06:34:40.167Z,12.28
2022-10-30T06:35:40.229Z,12.21
2022-10-30T06:36:40.288Z,12.28
2022-10-30T06:37:40.187Z,12.28
2022-10-30T06:38:40.170Z,12.28
2022-10-30T06:39:40.185Z,12.28
2022-10-30T06:40:40.173Z,12.28
2022-10-30T06:41:40.190Z,12.36
2022-10-30T06:42:40.186Z,12.36
2022-10-30T06:43:40.231Z,12.36
2022-10-30T06:44:40.444Z,12.44
2022-10-30T06:45:40.414Z,12.36
2022-10-30T06:46:40.469Z,12.36
2022-10-30T06:47:40.381Z,12.36
2022-10-30T06:48:40.345Z,12.36
2022-10-30T06:49:40.202Z,12.28
2022-10-30T06:50:40.188Z,12.28
2022-10-30T06:51:40.218Z,12.28
2022-10-30T06:52:40.169Z,12.36
2022-10-30T06:53:40.166Z,12.36
2022-10-30T06:54:40.180Z,12.44
2022-10-30T06:55:40.165Z,12.44
2022-10-30T06:56:40.178Z,12.44
2022-10-30T06:57:40.179Z,12.44
2022-10-30T06:58:40.279Z,12.44
2022-10-30T06:59:40.247Z,12.44
2022-10-30T07:00:40.268Z,12.44
2022-10-30T07:01:40.295Z,12.44
2022-10-30T07:02:40.185Z,12.44
2022-10-30T07:03:40.174Z,12.51
2022-10-30T07:04:40.179Z,12.44
2022-10-30T07:05:40.184Z,12.51
2022-10-30T07:06:40.231Z,12.59
2022-10-30T07:07:40.234Z,12.59
2022-10-30T07:08:40.176Z,12.67
2022-10-30T07:09:40.172Z,12.67
2022-10-30T07:10:40.170Z,12.67
2022-10-30T07:11:40.193Z,12.67
2022-10-30T07:12:40.253Z,12.67
2022-10-30T07:13:40.187Z,12.74
2022-10-30T07:14:40.253Z,12.67
2022-10-30T07:15:40.216Z,12.67
2022-10-30T07:16:40.208Z,12.74
2022-10-30T07:17:40.169Z,12.74
2022-10-30T07:18:40.196Z,12.74
2022-10-30T07:19:40.164Z,12.82
2022-10-30T07:20:40.207Z,12.82
2022-10-30T07:21:40.193Z,12.9
2022-10-30T07:22:40.218Z,12.9
2022-10-30T07:23:40.179Z,12.9
2022-10-30T07:24:40.166Z,12.9
2022-10-30T07:25:40.204Z,12.98
2022-10-30T07:26:40.184Z,13.06
2022-10-30T07:27:40.169Z,13.06
2022-10-30T07:28:40.184Z,13.06
2022-10-30T07:29:40.269Z,13.14
2022-10-30T07:30:40.210Z,13.14
2022-10-30T07:31:42.285Z,13.14
2022-10-30T07:32:40.189Z,13.14
2022-10-30T07:33:40.180Z,13.14
2022-10-30T07:34:40.201Z,13.14
2022-10-30T07:35:40.193Z,13.06
2022-10-30T07:36:40.185Z,13.14
2022-10-30T07:37:40.231Z,13.14
2022-10-30T07:38:40.234Z,13.14
2022-10-30T07:39:40.197Z,13.06
2022-10-30T07:40:40.190Z,13.06
2022-10-30T07:41:40.191Z,13.14
2022-10-30T07:42:40.169Z,13.14
2022-10-30T07:43:40.238Z,13.22
2022-10-30T07:44:40.195Z,13.22
2022-10-30T07:45:40.224Z,13.3
2022-10-30T07:46:40.235Z,13.38
2022-10-30T07:47:40.202Z,13.38
2022-10-30T07:48:40.176Z,13.38
2022-10-30T07:49:40.196Z,13.46
2022-10-30T07:50:40.192Z,13.54
2022-10-30T07:51:40.183Z,13.46
2022-10-30T07:52:40.173Z,13.46
2022-10-30T07:53:40.234Z,13.54
2022-10-30T07:54:40.310Z,13.54
2022-10-30T07:55:40.199Z,13.54
2022-10-30T07:56:40.189Z,13.54
2022-10-30T07:57:40.228Z,13.63
2022-10-30T07:58:45.213Z,13.71
2022-10-30T07:59:40.250Z,13.71
2022-10-30T08:00:40.202Z,13.71
2022-10-30T08:01:40.414Z,13.71
2022-10-30T08:02:40.393Z,13.71
2022-10-30T08:03:40.193Z,13.79
2022-10-30T08:04:40.209Z,13.79
2022-10-30T08:05:40.191Z,13.87
2022-10-30T08:06:40.193Z,13.87
2022-10-30T08:07:40.190Z,13.96
2022-10-30T08:08:43.099Z,13.96
2022-10-30T08:09:40.214Z,13.96
2022-10-30T08:10:40.187Z,13.96
2022-10-30T08:11:40.578Z,14.04
2022-10-30T08:12:40.198Z,14.04
2022-10-30T08:13:40.195Z,14.04
2022-10-30T08:14:40.203Z,14.13
2022-10-30T08:15:40.190Z,14.13
2022-10-30T08:16:40.258Z,14.21
2022-10-30T08:17:40.221Z,14.21
2022-10-30T08:18:40.203Z,14.3
2022-10-30T08:19:40.183Z,14.3
2022-10-30T08:20:40.284Z,14.38
2022-10-30T08:21:40.171Z,14.38
2022-10-30T08:22:40.269Z,14.47
2022-10-30T08:23:40.179Z,14.47
2022-10-30T08:24:40.226Z,14.56
2022-10-30T08:25:40.222Z,14.56
2022-10-30T08:26:40.197Z,14.56
2022-10-30T08:27:40.189Z,14.56
2022-10-30T08:28:40.181Z,14.65
2022-10-30T08:29:40.206Z,14.65
2022-10-30T08:30:40.198Z,14.73
2022-10-30T08:31:40.170Z,14.82
2022-10-30T08:32:40.273Z,14.82
2022-10-30T08:33:40.175Z,14.82
2022-10-30T08:34:40.201Z,14.82
2022-10-30T08:35:40.191Z,14.82
2022-10-30T08:36:42.706Z,14.91
2022-10-30T08:37:40.180Z,14.91
2022-10-30T08:38:40.195Z,14.91
2022-10-30T08:39:40.251Z,15
2022-10-30T08:40:40.230Z,15.09
2022-10-30T08:41:40.191Z,15.09
2022-10-30T08:42:40.213Z,15.18
2022-10-30T08:43:40.186Z,15.09
2022-10-30T08:44:40.216Z,15.09
2022-10-30T08:45:40.190Z,15.18
2022-10-30T08:46:40.203Z,15.27
2022-10-30T08:47:40.233Z,15.36
2022-10-30T08:48:40.237Z,15.26
2022-10-30T08:49:40.213Z,15
2022-10-30T08:50:40.215Z,15.18
2022-10-30T08:51:40.188Z,15.27
2022-10-30T08:52:40.203Z,15.36
2022-10-30T08:53:40.263Z,15.36
2022-10-30T08:54:40.226Z,15.36
2022-10-30T08:55:40.225Z,15.55
2022-10-30T08:56:40.254Z,15.38
2022-10-30T08:57:40.208Z,15.34
2022-10-30T08:58:40.212Z,15.2
2022-10-30T08:59:40.226Z,15.36
2022-10-30T09:00:40.194Z,15.15
2022-10-30T09:01:40.339Z,15.31
2022-10-30T09:02:40.381Z,15.02
2022-10-30T09:03:40.234Z,15.35
2022-10-30T09:04:40.190Z,15.12
2022-10-30T09:05:40.185Z,15.41
2022-10-30T09:06:40.185Z,15.22
2022-10-30T09:07:40.279Z,15.31
2022-10-30T09:08:40.188Z,15.3
2022-10-30T09:09:40.208Z,15.52
2022-10-30T09:10:40.254Z,15.31
2022-10-30T09:11:40.245Z,15.31
2022-10-30T09:12:40.191Z,15.29
2022-10-30T09:13:40.185Z,15.23
2022-10-30T09:14:40.217Z,15.3
2022-10-30T09:15:40.216Z,15.31
2022-10-30T09:16:40.198Z,15.36
2022-10-30T09:17:40.197Z,15.24
2022-10-30T09:18:40.333Z,15.37
2022-10-30T09:19:40.304Z,15.51
2022-10-30T09:20:40.222Z,15.64
2022-10-30T09:21:40.244Z,15.44
2022-10-30T09:22:40.196Z,15.48
2022-10-30T09:23:40.194Z,15.41
2022-10-30T09:24:40.237Z,15.67
2022-10-30T09:25:40.193Z,15.79
2022-10-30T09:26:40.254Z,15.73
2022-10-30T09:27:40.230Z,15.63
2022-10-30T09:28:40.215Z,15.43
2022-10-30T09:29:40.228Z,15.41
2022-10-30T09:30:40.207Z,15.24
2022-10-30T09:31:40.194Z,15.31
2022-10-30T09:32:40.194Z,15.26
2022-10-30T09:33:40.217Z,15.41
2022-10-30T09:34:40.228Z,15.22
2022-10-30T09:35:40.248Z,15.18
2022-10-30T09:36:40.203Z,15.06
2022-10-30T09:37:40.197Z,15.4
2022-10-30T09:38:40.249Z,15.16
2022-10-30T09:39:40.192Z,15.32
2022-10-30T09:40:40.213Z,15.27
2022-10-30T09:41:40.192Z,15.55
2022-10-30T09:42:40.267Z,15.34
2022-10-30T09:43:40.182Z,15.33
2022-10-30T09:44:40.232Z,15.5
2022-10-30T09:45:40.221Z,15.08
2022-10-30T09:46:40.267Z,15.19
2022-10-30T09:47:40.201Z,15.2
2022-10-30T09:48:40.204Z,15.22
2022-10-30T09:49:40.241Z,15.13
2022-10-30T09:50:40.235Z,14.98
2022-10-30T09:51:40.231Z,15.24
2022-10-30T09:52:40.206Z,15.16
2022-10-30T09:53:40.201Z,15.25
2022-10-30T09:54:40.349Z,15.17
2022-10-30T09:55:40.194Z,15.32
2022-10-30T09:56:40.198Z,15.44
2022-10-30T09:57:40.261Z,15.15
2022-10-30T09:58:40.240Z,15.14
2022-10-30T09:59:40.213Z,15.14
2022-10-30T10:00:40.301Z,15.45
2022-10-30T10:01:40.375Z,15.18
2022-10-30T10:02:40.302Z,15.3
2022-10-30T10:03:40.263Z,15.34
2022-10-30T10:04:40.226Z,15.29
2022-10-30T10:05:40.247Z,15.11
2022-10-30T10:06:40.238Z,15.13
2022-10-30T10:07:40.207Z,15.13
2022-10-30T10:08:40.226Z,15.15
2022-10-30T10:09:40.277Z,15.17
2022-10-30T10:10:40.187Z,14.99
2022-10-30T10:11:40.260Z,15.13
2022-10-30T10:12:40.213Z,14.92
2022-10-30T10:13:40.259Z,15.08
2022-10-30T10:14:40.243Z,14.96
2022-10-30T10:15:40.207Z,14.8
2022-10-30T10:16:40.208Z,15
2022-10-30T10:17:40.227Z,14.78
2022-10-30T10:18:40.202Z,15.09
2022-10-30T10:19:40.193Z,15.23
2022-10-30T10:20:40.201Z,15.12
2022-10-30T10:21:40.254Z,14.97
2022-10-30T10:22:40.236Z,14.94
2022-10-30T10:23:40.207Z,15.04
2022-10-30T10:24:40.234Z,14.73
2022-10-30T10:25:40.202Z,14.94
2022-10-30T10:26:40.197Z,15.04
2022-10-30T10:27:40.206Z,15
2022-10-30T10:28:40.287Z,14.72
2022-10-30T10:29:40.270Z,14.59
2022-10-30T10:30:40.191Z,14.69
2022-10-30T10:31:40.211Z,14.34
2022-10-30T10:32:40.223Z,14.75
2022-10-30T10:33:40.222Z,14.42
2022-10-30T10:34:40.205Z,14.3
2022-10-30T10:35:40.225Z,14.25
2022-10-30T10:36:40.252Z,14
2022-10-30T10:37:40.258Z,13.92
2022-10-30T10:38:40.199Z,13.9
2022-10-30T10:39:40.216Z,13.83
2022-10-30T10:40:40.232Z,13.69
2022-10-30T10:41:40.226Z,13.85
2022-10-30T10:42:40.268Z,13.77
2022-10-30T10:43:40.203Z,13.87
2022-10-30T10:44:40.258Z,13.81
2022-10-30T10:45:40.265Z,13.55
2022-10-30T10:46:40.217Z,13.53
2022-10-30T10:47:40.205Z,13.79
2022-10-30T10:48:40.209Z,13.63
2022-10-30T10:49:40.465Z,13.41
2022-10-30T10:50:40.211Z,13.41
2022-10-30T10:51:40.222Z,13.41
2022-10-30T10:52:40.258Z,13.38
2022-10-30T10:53:40.367Z,13.32
2022-10-30T10:54:40.213Z,13.48
2022-10-30T10:55:40.199Z,13.62
2022-10-30T10:56:40.362Z,13.88
2022-10-30T10:57:40.237Z,13.55
2022-10-30T10:58:40.284Z,13.38
2022-10-30T10:59:40.297Z,13.27
2022-10-30T11:00:40.272Z,12.97
2022-10-30T11:01:40.391Z,12.97
2022-10-30T11:02:40.347Z,13.38
2022-10-30T11:03:40.215Z,12.94
2022-10-30T11:04:40.265Z,13.31
2022-10-30T11:05:40.215Z,13.25
2022-10-30T11:06:40.255Z,12.86
2022-10-30T11:07:40.297Z,12.91
2022-10-30T11:08:40.274Z,13.11
2022-10-30T11:09:40.207Z,13.12
2022-10-30T11:10:40.212Z,13.15
2022-10-30T11:11:40.228Z,12.98
2022-10-30T11:12:40.223Z,13.02
2022-10-30T11:13:40.215Z,13.11
2022-10-30T11:14:40.218Z,12.82
2022-10-30T11:15:40.264Z,12.82
2022-10-30T11:16:40.250Z,12.94
2022-10-30T11:17:40.205Z,12.91
2022-10-30T11:18:40.275Z,12.58
2022-10-30T11:19:40.217Z,13
2022-10-30T11:20:40.227Z,12.38
2022-10-30T11:21:40.262Z,12.78
2022-10-30T11:22:40.215Z,13
2022-10-30T11:23:40.271Z,12.68
2022-10-30T11:24:40.279Z,12.91
2022-10-30T11:25:40.212Z,12.81
2022-10-30T11:26:40.223Z,12.44
2022-10-30T11:27:40.223Z,12.74
2022-10-30T11:28:40.260Z,12.77
2022-10-30T11:29:40.210Z,12.87
2022-10-30T11:30:40.231Z,12.49
2022-10-30T11:31:40.343Z,12.61
2022-10-30T11:32:40.283Z,12.65
2022-10-30T11:33:40.222Z,12.2
2022-10-30T11:34:40.234Z,12.43
2022-10-30T11:35:40.219Z,12.37
2022-10-30T11:36:40.230Z,12.06
2022-10-30T11:37:40.227Z,12.18
2022-10-30T11:38:40.221Z,12.19
2022-10-30T11:39:40.320Z,12.53
2022-10-30T11:40:40.217Z,12.47
2022-10-30T11:41:40.233Z,12.24
2022-10-30T11:42:40.249Z,12.2
2022-10-30T11:43:40.220Z,12.12
2022-10-30T11:44:40.235Z,12.27
2022-10-30T11:45:40.231Z,12.03
2022-10-30T11:46:40.304Z,12
2022-10-30T11:47:40.280Z,11.93
2022-10-30T11:48:40.210Z,11.68
2022-10-30T11:49:40.284Z,11.9
2022-10-30T11:50:40.219Z,12.18
2022-10-30T11:51:40.299Z,12.06
2022-10-30T11:52:40.236Z,12.06
2022-10-30T11:53:40.218Z,11.51
2022-10-30T11:54:40.285Z,11.7
2022-10-30T11:55:40.290Z,12.04
2022-10-30T11:56:40.227Z,11.71
2022-10-30T11:57:40.223Z,12.14
2022-10-30T11:58:40.232Z,11.79
2022-10-30T11:59:40.217Z,11.83
2022-10-30T12:00:40.337Z,11.8
2022-10-30T12:01:40.292Z,11.89
2022-10-30T12:02:40.277Z,11.91
2022-10-30T12:03:40.272Z,11.68
2022-10-30T12:04:40.229Z,11.76
2022-10-30T12:05:41.660Z,11.79
2022-10-30T12:06:40.281Z,11.57
2022-10-30T12:07:40.236Z,11.7
2022-10-30T12:08:40.231Z,11.44
2022-10-30T12:09:40.232Z,11.69
2022-10-30T12:10:40.489Z,11.79
2022-10-30T12:11:40.246Z,11.85
2022-10-30T12:12:40.250Z,11.7
2022-10-30T12:13:40.222Z,11.38
2022-10-30T12:14:40.228Z,11.86
2022-10-30T12:15:40.278Z,11.83
2022-10-30T12:16:40.233Z,11.85
2022-10-30T12:17:40.285Z,12.05
2022-10-30T12:18:40.302Z,11.76
2022-10-30T12:19:40.239Z,11.47
2022-10-30T12:20:40.234Z,11.82
2022-10-30T12:21:40.236Z,11.76
2022-10-30T12:22:40.242Z,11.53
2022-10-30T12:23:40.243Z,11.97
2022-10-30T12:24:40.270Z,11.83
2022-10-30T12:25:40.287Z,11.64
2022-10-30T12:26:40.319Z,11.34
2022-10-30T12:27:40.231Z,11.51
2022-10-30T12:28:40.233Z,12
2022-10-30T12:30:06.671Z,11.74
2022-10-30T12:30:40.224Z,11.38
2022-10-30T12:31:40.305Z,11.85
2022-10-30T12:32:40.249Z,11.58
2022-10-30T12:33:40.297Z,11.55
2022-10-30T12:34:40.300Z,11.78
2022-10-30T12:35:40.240Z,11.53
2022-10-30T12:36:40.249Z,11.34
2022-10-30T12:37:40.236Z,11.57
2022-10-30T12:38:40.233Z,11.44
2022-10-30T12:39:40.270Z,11.41
2022-10-30T12:40:40.239Z,11.44
2022-10-30T12:41:40.274Z,11.57
2022-10-30T12:42:40.298Z,11.45
2022-10-30T12:43:40.244Z,11.38
2022-10-30T12:44:40.253Z,11.48
2022-10-30T12:45:40.296Z,11.64
2022-10-30T12:46:40.310Z,11.57
2022-10-30T12:47:40.231Z,11.33
2022-10-30T12:48:40.305Z,11.33
2022-10-30T12:49:40.281Z,11.23
2022-10-30T12:50:40.249Z,11.6
2022-10-30T12:51:40.248Z,11.73
2022-10-30T12:52:40.259Z,11.26
2022-10-30T12:53:40.273Z,11.17
2022-10-30T12:54:40.241Z,11.32
2022-10-30T12:55:40.240Z,11.56
2022-10-30T12:56:40.296Z,11.6